Time;durP1;ratioP1;P1;durP2;ratioP2;P2;SDS_P1;SDS_P2;PMS_P1;PMS_P2;Temp;Humidity;BMP_temperature;BMP_pressure;BME280_temperature;BME280_humidity;BME280_pressure;Samples;Min_cycle;Max_cycle;Signal;HPM_P1;HPM_P2
2022/07/26 00:00:40;;;;;;;3.72;1.27;;;30.50;35.70;;;;;;6259304;28;20029;-81
2022/07/26 00:03:41;;;;;;;3.33;1.33;;;30.40;35.70;;;;;;6263232;28;20056;-82
2022/07/26 00:06:42;;;;;;;1.92;1.05;;;30.40;35.70;;;;;;6271226;28;20064;-81
2022/07/26 00:09:43;;;;;;;2.55;1.23;;;30.30;35.60;;;;;;6257745;28;20033;-82
2022/07/26 00:12:44;;;;;;;3.08;1.35;;;30.20;35.70;;;;;;6250723;28;20033;-82
2022/07/26 00:15:47;;;;;;;1.83;1.10;;;30.20;35.90;;;;;;6251054;28;20065;-82
2022/07/26 00:18:48;;;;;;;2.60;1.17;;;30.10;36.10;;;;;;6251069;28;20065;-80
2022/07/26 00:22:32;;;;;;;1.25;1.00;;;30.10;36.20;;;;;;6261106;28;20127;-81
2022/07/26 00:25:10;;;;;;;4.05;1.10;;;30.10;36.90;;;;;;6255820;28;20030;-81
2022/07/26 00:28:11;;;;;;;2.13;1.05;;;30.10;36.20;;;;;;6269491;28;20421;-82
2022/07/26 00:31:14;;;;;;;2.17;1.00;;;30.10;36.30;;;;;;6274939;28;20031;-81
2022/07/26 00:34:14;;;;;;;3.45;1.50;;;30.10;36.20;;;;;;6291742;28;20033;-83
2022/07/26 00:37:16;;;;;;;5.93;1.00;;;30.10;36.40;;;;;;6259544;28;20109;-82
2022/07/26 00:40:17;;;;;;;2.22;0.90;;;30.00;36.50;;;;;;6275192;28;20401;-83
2022/07/26 00:43:18;;;;;;;2.17;1.13;;;30.00;36.70;;;;;;6274733;28;20029;-83
2022/07/26 00:46:19;;;;;;;1.17;0.90;;;30.00;36.90;;;;;;6274659;28;20036;-81
2022/07/26 00:49:20;;;;;;;4.07;0.95;;;29.90;37.00;;;;;;6257954;28;20350;-82
2022/07/26 00:52:21;;;;;;;3.13;0.80;;;29.90;37.10;;;;;;6258531;28;20103;-82
2022/07/26 00:55:22;;;;;;;2.53;1.00;;;29.90;37.20;;;;;;6258331;28;20086;-80
2022/07/26 00:58:24;;;;;;;0.88;0.88;;;29.90;37.20;;;;;;6277052;28;20047;-81
2022/07/26 01:01:25;;;;;;;1.05;0.90;;;29.80;37.50;;;;;;6257835;28;20461;-80
2022/07/26 01:04:27;;;;;;;1.50;0.80;;;29.80;37.70;;;;;;6275337;28;20596;-80
2022/07/26 01:07:28;;;;;;;3.90;0.93;;;29.80;37.80;;;;;;6273993;28;20032;-83
2022/07/26 01:10:29;;;;;;;5.63;1.00;;;29.70;37.80;;;;;;6273871;28;20047;-79
2022/07/26 01:13:30;;;;;;;1.50;1.00;;;29.70;37.90;;;;;;6256849;28;20426;-79
2022/07/26 01:16:31;;;;;;;3.42;1.10;;;29.80;37.90;;;;;;6256681;28;20021;-80
2022/07/26 01:19:32;;;;;;;3.17;1.17;;;29.70;37.80;;;;;;6256972;28;20036;-81
2022/07/26 01:22:33;;;;;;;2.13;1.00;;;29.70;37.90;;;;;;6256408;28;20040;-80
2022/07/26 01:25:38;;;;;;;2.38;0.88;;;29.70;38.00;;;;;;6257235;28;20083;-79
2022/07/26 01:28:39;;;;;;;1.95;1.20;;;29.70;38.20;;;;;;6256345;28;20040;-77
2022/07/26 01:31:40;;;;;;;6.90;1.25;;;29.60;38.20;;;;;;6289777;28;20033;-78
2022/07/26 01:34:41;;;;;;;2.35;0.90;;;29.60;38.30;;;;;;6273047;28;20350;-76
2022/07/26 01:37:42;;;;;;;2.45;1.02;;;29.60;38.60;;;;;;6288803;28;20029;-75
2022/07/26 01:40:43;;;;;;;3.63;1.10;;;29.50;38.70;;;;;;6272459;28;20053;-78
2022/07/26 01:43:44;;;;;;;4.82;0.80;;;29.50;38.80;;;;;;6288943;28;20501;-81
2022/07/26 01:46:45;;;;;;;2.40;0.95;;;29.50;38.90;;;;;;6289619;28;20508;-78
2022/07/26 01:49:46;;;;;;;6.65;1.60;;;29.40;39.20;;;;;;6272688;28;20155;-78
2022/07/26 01:52:48;;;;;;;2.22;0.90;;;29.30;39.50;;;;;;6290746;28;20654;-78
2022/07/26 01:55:48;;;;;;;0.93;0.65;;;29.30;39.70;;;;;;6273665;28;20068;-78
2022/07/26 01:58:50;;;;;;;1.05;0.82;;;29.20;39.80;;;;;;6289379;28;20043;-78
2022/07/26 02:01:50;;;;;;;1.58;0.77;;;29.20;39.90;;;;;;6272361;28;20037;-78
2022/07/26 02:04:57;;;;;;;2.35;1.15;;;29.30;40.00;;;;;;6272659;28;20464;-80
2022/07/26 02:07:58;;;;;;;1.13;0.90;;;29.20;40.30;;;;;;6255502;28;20446;-80
2022/07/26 02:10:59;;;;;;;1.05;0.80;;;29.20;40.40;;;;;;6255883;28;20059;-79
2022/07/26 02:14:02;;;;;;;1.52;0.55;;;29.20;40.60;;;;;;6255324;28;20028;-78
2022/07/26 02:17:03;;;;;;;1.75;0.93;;;29.20;40.70;;;;;;6255709;28;20048;-78
2022/07/26 02:20:05;;;;;;;1.42;0.65;;;29.20;40.90;;;;;;6272266;28;20448;-79
2022/07/26 02:23:06;;;;;;;0.90;0.73;;;29.10;41.10;;;;;;6258206;28;20033;-79
2022/07/26 02:26:07;;;;;;;4.00;0.70;;;29.10;41.40;;;;;;6272533;28;20031;-79
2022/07/26 02:29:08;;;;;;;1.15;0.90;;;29.00;41.70;;;;;;6255455;28;20033;-79
2022/07/26 02:32:10;;;;;;;1.13;0.70;;;29.00;41.80;;;;;;6255521;28;20086;-79
2022/07/26 02:35:11;;;;;;;1.00;0.60;;;29.00;42.00;;;;;;6271653;28;20691;-77
2022/07/26 02:38:15;;;;;;;1.73;0.80;;;29.00;42.10;;;;;;6255603;28;20033;-78
2022/07/26 02:41:16;;;;;;;5.40;1.08;;;28.90;42.30;;;;;;6273453;28;20097;-77
2022/07/26 02:44:17;;;;;;;0.80;0.70;;;28.90;42.30;;;;;;6257295;28;20037;-78
2022/07/26 02:47:19;;;;;;;4.63;0.98;;;28.90;42.50;;;;;;6255608;28;20043;-79
2022/07/26 02:50:22;;;;;;;2.33;0.63;;;28.80;42.70;;;;;;6275855;28;20085;-79
2022/07/26 02:53:23;;;;;;;0.93;0.70;;;28.70;42.80;;;;;;6271905;28;20417;-79
2022/07/26 02:56:24;;;;;;;1.83;0.85;;;28.70;42.90;;;;;;6272055;28;20056;-80
2022/07/26 02:59:25;;;;;;;1.92;0.88;;;28.70;43.00;;;;;;6271652;28;20047;-79
2022/07/26 03:02:26;;;;;;;9.05;0.85;;;28.60;43.20;;;;;;6277062;28;20369;-79
2022/07/26 03:05:27;;;;;;;0.75;0.55;;;28.60;43.30;;;;;;6259652;28;20036;-80
2022/07/26 03:08:28;;;;;;;1.20;0.80;;;28.60;43.40;;;;;;6276049;28;20120;-79
2022/07/26 03:11:29;;;;;;;2.97;0.85;;;28.60;43.40;;;;;;6259722;28;20040;-79
2022/07/26 03:14:30;;;;;;;1.95;0.80;;;28.60;43.40;;;;;;6260148;28;20025;-80
2022/07/26 03:17:31;;;;;;;0.80;0.60;;;28.60;43.40;;;;;;6276942;28;20461;-79
2022/07/26 03:20:32;;;;;;;3.42;0.68;;;28.50;43.50;;;;;;6264250;28;20128;-79
2022/07/26 03:23:33;;;;;;;2.67;0.60;;;28.50;43.60;;;;;;6274457;28;20086;-78
2022/07/26 03:26:34;;;;;;;0.60;0.60;;;28.40;43.60;;;;;;6276490;28;20041;-78
2022/07/26 03:29:36;;;;;;;2.05;0.70;;;28.50;43.60;;;;;;6275787;28;20086;-79
2022/07/26 03:32:37;;;;;;;3.03;0.57;;;28.50;43.60;;;;;;6291940;28;20054;-78
2022/07/26 03:35:38;;;;;;;1.48;0.52;;;28.50;43.70;;;;;;6291757;28;20037;-79
2022/07/26 03:38:39;;;;;;;2.05;0.80;;;28.40;43.80;;;;;;6261131;28;20033;-79
2022/07/26 03:41:40;;;;;;;0.50;0.50;;;28.40;43.90;;;;;;6277517;28;20036;-80
2022/07/26 03:44:41;;;;;;;1.10;0.40;;;28.40;43.90;;;;;;6258806;28;20033;-79
2022/07/26 03:47:44;;;;;;;0.45;0.45;;;28.40;43.90;;;;;;6259716;28;20056;-79
2022/07/26 03:50:45;;;;;;;1.17;0.52;;;28.40;43.90;;;;;;6258109;28;20036;-79
2022/07/26 03:53:46;;;;;;;0.50;0.38;;;28.40;44.00;;;;;;6258294;28;20049;-79
2022/07/26 03:56:47;;;;;;;0.52;0.43;;;28.40;44.00;;;;;;6258161;28;20116;-78
2022/07/26 03:59:49;;;;;;;1.65;0.60;;;28.40;44.10;;;;;;6258242;28;20040;-79
2022/07/26 04:02:50;;;;;;;2.30;0.55;;;28.30;44.30;;;;;;6274794;28;20040;-78
2022/07/26 04:05:51;;;;;;;3.53;0.70;;;28.30;44.40;;;;;;6275931;28;20087;-80
2022/07/26 04:08:52;;;;;;;2.15;0.40;;;28.30;44.50;;;;;;6274294;28;20032;-79
2022/07/26 04:11:53;;;;;;;1.23;0.50;;;28.20;44.70;;;;;;6274761;28;20021;-79
2022/07/26 04:14:54;;;;;;;2.03;0.40;;;28.30;44.70;;;;;;6274706;28;20148;-79
2022/07/26 04:17:55;;;;;;;0.73;0.40;;;28.20;44.70;;;;;;6274789;28;20040;-80
2022/07/26 04:20:56;;;;;;;0.25;0.25;;;28.30;44.80;;;;;;6274480;28;20036;-78
2022/07/26 04:23:57;;;;;;;1.05;0.57;;;28.20;44.90;;;;;;6274265;28;20032;-79
2022/07/26 04:26:58;;;;;;;0.60;0.47;;;28.20;45.00;;;;;;6274965;28;20068;-79
2022/07/26 04:29:59;;;;;;;0.32;0.32;;;28.10;45.10;;;;;;6275013;28;20093;-80
2022/07/26 04:33:00;;;;;;;0.70;0.35;;;28.20;45.20;;;;;;6277455;28;20040;-80
2022/07/26 04:36:02;;;;;;;0.73;0.52;;;28.10;45.30;;;;;;6257991;28;20056;-79
2022/07/26 04:39:03;;;;;;;0.82;0.52;;;28.00;45.50;;;;;;6260445;28;20028;-79
2022/07/26 04:42:04;;;;;;;0.80;0.65;;;27.90;45.70;;;;;;6282345;28;20105;-78
2022/07/26 04:45:05;;;;;;;0.52;0.50;;;27.90;45.70;;;;;;6281194;28;20044;-78
2022/07/26 04:48:07;;;;;;;3.53;0.77;;;27.90;45.70;;;;;;6272744;28;20032;-80
2022/07/26 04:51:08;;;;;;;5.97;0.50;;;27.90;45.70;;;;;;6289572;28;20032;-81
2022/07/26 04:54:09;;;;;;;0.32;0.32;;;27.90;45.70;;;;;;6274333;28;20049;-79
2022/07/26 04:57:10;;;;;;;0.65;0.45;;;27.90;45.80;;;;;;6293443;28;20699;-79
2022/07/26 05:00:13;;;;;;;4.43;0.75;;;27.90;45.90;;;;;;6290373;28;20097;-76
2022/07/26 05:03:14;;;;;;;0.77;0.60;;;27.80;46.00;;;;;;6274644;28;20040;-77
2022/07/26 05:06:15;;;;;;;15.95;1.15;;;27.80;46.20;;;;;;6275112;28;20033;-79
2022/07/26 05:09:16;;;;;;;2.90;0.73;;;27.80;46.30;;;;;;6274838;28;20067;-81
2022/07/26 05:12:17;;;;;;;1.50;0.80;;;27.80;46.40;;;;;;6275159;28;20033;-81
2022/07/26 05:15:18;;;;;;;1.58;0.88;;;27.80;46.30;;;;;;6273946;28;20025;-81
2022/07/26 05:18:19;;;;;;;1.10;0.68;;;27.70;46.40;;;;;;6276738;28;20395;-83
2022/07/26 05:21:20;;;;;;;2.35;1.00;;;27.70;46.60;;;;;;6284738;28;20037;-82
2022/07/26 05:24:22;;;;;;;1.05;0.70;;;27.70;46.60;;;;;;6282463;28;20028;-82
2022/07/26 05:27:23;;;;;;;3.95;0.80;;;27.80;46.50;;;;;;6277119;28;20086;-83
2022/07/26 05:30:24;;;;;;;1.70;0.75;;;27.80;46.50;;;;;;6265167;28;20028;-83
2022/07/26 05:33:25;;;;;;;1.75;0.85;;;27.80;46.30;;;;;;6263369;28;20039;-82
2022/07/26 05:36:26;;;;;;;2.42;1.00;;;27.90;46.20;;;;;;6279946;28;20039;-84
2022/07/26 05:39:28;;;;;;;2.67;1.35;;;28.00;46.00;;;;;;6251806;28;20106;-84
2022/07/26 05:42:29;;;;;;;4.22;1.10;;;28.00;45.80;;;;;;6257956;28;20029;-83
2022/07/26 05:45:30;;;;;;;1.42;1.20;;;28.00;45.70;;;;;;6284270;28;20036;-87
2022/07/26 05:48:31;;;;;;;1.20;1.00;;;28.00;45.70;;;;;;6277172;28;20335;-87
2022/07/26 05:51:32;;;;;;;3.67;1.10;;;28.00;45.60;;;;;;6261945;28;20029;-84
2022/07/26 05:54:34;;;;;;;1.35;1.15;;;28.00;45.60;;;;;;6276994;28;20454;-87
2022/07/26 05:57:35;;;;;;;3.53;1.50;;;28.00;45.50;;;;;;6277457;28;20029;-88
2022/07/26 06:06:04;;;;;;;1.98;1.10;;;27.90;45.50;;;;;;6264583;28;20059;-89
2022/07/26 06:13:10;;;;;;;5.63;1.40;;;28.10;45.30;;;;;;6156364;29;20031;-89
2022/07/26 06:16:37;;;;;;;4.40;1.05;;;28.20;45.20;;;;;;6140059;29;20425;-87
2022/07/26 06:20:07;;;;;;;1.48;1.23;;;28.10;45.10;;;;;;6139883;29;20126;-89
2022/07/26 06:24:28;;;;;;;;;;;;;;;;;;;;;
2022/07/26 06:33:27;;;;;;;1.85;1.33;;;27.80;45.90;;;;;;6180900;28;20125;-87
2022/07/26 06:37:06;;;;;;;2.35;1.30;;;27.80;45.70;;;;;;6150628;28;20043;-87
2022/07/26 06:53:58;;;;;;;5.30;1.45;;;27.60;45.50;;;;;;6111134;29;20040;-86
2022/07/26 07:07:06;;;;;;;;;;;;;;;;;;;;;
2022/07/26 07:11:04;;;;;;;5.00;1.65;;;27.50;46.00;;;;;;6050088;29;20061;-89
2022/07/26 07:14:24;;;;;;;2.25;1.20;;;27.60;46.10;;;;;;6031950;29;20072;-90
2022/07/26 07:18:19;;;;;;;5.20;1.75;;;27.70;46.20;;;;;;6036208;29;20037;-88
2022/07/26 07:21:56;;;;;;;2.15;1.25;;;27.60;46.30;;;;;;6041660;29;20017;-88
2022/07/26 07:29:40;;;;;;;3.85;1.40;;;27.70;46.10;;;;;;6079659;29;20117;-91
2022/07/26 07:51:44;;;;;;;3.03;1.50;;;28.00;45.30;;;;;;6063344;29;20034;-87
2022/07/26 07:56:21;;;;;;;4.32;1.30;;;28.10;45.40;;;;;;6079000;29;20061;-88
2022/07/26 07:59:54;;;;;;;;;;;27.80;45.30;;;;;;6081689;29;20088;-88
2022/07/26 08:13:24;;;;;;;5.55;1.35;;;28.00;45.30;;;;;;6044226;29;20081;-87
2022/07/26 08:22:21;;;;;;;4.72;1.70;;;28.10;45.00;;;;;;6085982;29;20052;-88
2022/07/26 08:29:55;;;;;;;4.45;1.77;;;28.40;44.40;;;;;;6087243;29;20040;-86
2022/07/26 08:37:58;;;;;;;;;;;;;;;;;;;;;
2022/07/26 08:41:25;;;;;;;5.38;1.67;;;28.80;44.00;;;;;;6165073;28;20034;-89
2022/07/26 08:44:56;;;;;;;4.03;1.83;;;29.10;43.50;;;;;;6201818;28;20026;-89
2022/07/26 08:48:02;;;;;;;2.50;1.15;;;28.60;43.00;;;;;;6214714;28;20380;-91
2022/07/26 08:51:08;;;;;;;4.75;1.10;;;29.10;43.20;;;;;;6196713;28;20033;-90
2022/07/26 08:54:15;;;;;;;8.05;1.58;;;29.30;43.00;;;;;;6206698;28;20044;-89
2022/07/26 08:57:17;;;;;;;2.10;1.02;;;29.40;42.70;;;;;;6282783;28;20334;-91
2022/07/26 09:00:33;;;;;;;5.40;1.33;;;29.50;42.40;;;;;;6283496;28;20079;-90
2022/07/26 09:03:44;;;;;;;2.83;1.52;;;29.50;42.30;;;;;;6286729;28;20041;-89
2022/07/26 09:07:08;;;;;;;2.97;1.40;;;29.60;42.10;;;;;;6274674;28;20155;-88
2022/07/26 09:10:11;;;;;;;6.68;1.55;;;29.60;42.00;;;;;;6304398;28;20054;-89
2022/07/26 09:13:22;;;;;;;2.75;1.23;;;29.70;41.90;;;;;;6296910;28;20040;-90
2022/07/26 09:16:28;;;;;;;6.57;1.83;;;29.80;41.70;;;;;;6311981;28;20025;-89
2022/07/26 09:19:29;;;;;;;6.95;3.28;;;29.70;41.40;;;;;;6312404;28;20017;-91
2022/07/26 09:22:56;;;;;;;1.95;1.20;;;29.80;41.40;;;;;;6314447;28;20036;-92
2022/07/26 09:26:03;;;;;;;2.33;1.52;;;29.70;41.40;;;;;;6292024;28;20357;-92
2022/07/26 09:29:10;;;;;;;2.47;1.33;;;29.70;41.60;;;;;;6297823;28;20398;-90
2022/07/26 09:32:20;;;;;;;3.17;1.43;;;29.80;41.60;;;;;;6310443;28;20032;-91
2022/07/26 09:35:27;;;;;;;4.55;1.27;;;29.70;41.40;;;;;;6306417;28;20024;-90
2022/07/26 09:38:57;;;;;;;2.85;1.15;;;29.70;41.40;;;;;;6264933;28;20033;-90
2022/07/26 09:42:06;;;;;;;4.72;1.55;;;29.60;41.40;;;;;;6282948;28;20064;-90
2022/07/26 09:45:16;;;;;;;3.97;1.23;;;29.60;41.30;;;;;;6283775;28;20043;-91
2022/07/26 09:48:28;;;;;;;2.15;1.17;;;29.70;41.30;;;;;;6265761;28;20464;-91
2022/07/26 09:51:36;;;;;;;1.75;1.13;;;29.70;41.20;;;;;;6265804;28;20090;-91
2022/07/26 09:54:38;;;;;;;2.13;0.95;;;29.70;41.00;;;;;;6268240;28;20056;-92
2022/07/26 09:57:45;;;;;;;4.20;1.30;;;29.70;41.00;;;;;;6280370;28;20060;-91
2022/07/26 10:00:46;;;;;;;3.65;1.17;;;29.70;40.90;;;;;;6264772;28;20024;-91
2022/07/26 10:03:48;;;;;;;3.25;1.15;;;30.00;41.00;;;;;;6272839;28;20029;-91
2022/07/26 10:06:52;;;;;;;6.90;1.67;;;29.80;40.80;;;;;;6272692;28;20029;-92
2022/07/26 10:10:03;;;;;;;6.22;1.40;;;30.00;40.80;;;;;;6289616;28;20071;-90
2022/07/26 10:13:06;;;;;;;2.42;1.40;;;29.80;40.60;;;;;;6292065;28;20065;-91
2022/07/26 10:16:29;;;;;;;2.55;1.20;;;29.90;40.60;;;;;;6273415;28;20029;-91
2022/07/26 10:19:43;;;;;;;5.75;1.20;;;29.70;40.50;;;;;;6274632;28;20052;-91
2022/07/26 10:22:49;;;;;;;2.75;1.60;;;29.80;40.50;;;;;;6372919;23;20060;-91
2022/07/26 10:25:51;;;;;;;5.50;1.20;;;29.90;40.40;;;;;;6273089;28;20029;-90
2022/07/26 10:28:52;;;;;;;2.55;1.05;;;29.90;40.30;;;;;;6261206;28;20205;-91
2022/07/26 10:32:17;;;;;;;3.45;1.20;;;29.80;40.20;;;;;;6260964;28;20037;-90
2022/07/26 10:35:43;;;;;;;13.05;1.35;;;29.80;40.30;;;;;;6264191;28;20060;-89
2022/07/26 10:48:25;;;;;;;3.65;1.40;;;29.90;40.00;;;;;;6226284;28;20058;-90
2022/07/26 10:51:34;;;;;;;4.07;1.10;;;29.90;39.90;;;;;;6211316;28;20037;-92
2022/07/26 10:55:02;;;;;;;15.02;1.52;;;30.00;39.70;;;;;;6196214;28;20022;-90
2022/07/26 10:58:29;;;;;;;4.20;1.63;;;30.10;39.20;;;;;;6195395;28;20038;-90
2022/07/26 11:06:04;;;;;;;5.63;1.80;;;30.30;38.80;;;;;;6210697;28;20030;-90
2022/07/26 11:09:22;;;;;;;4.47;1.20;;;30.70;38.00;;;;;;6199641;28;20121;-88
2022/07/26 11:12:26;;;;;;;7.80;1.10;;;31.40;37.00;;;;;;6203755;28;20038;-91
2022/07/26 11:15:37;;;;;;;3.40;1.35;;;31.80;36.10;;;;;;6188501;28;20038;-88
2022/07/26 11:18:39;;;;;;;2.00;1.20;;;32.00;36.20;;;;;;6209613;28;20038;-89
2022/07/26 11:21:47;;;;;;;2.80;1.20;;;32.10;35.20;;;;;;6211651;28;20105;-88
2022/07/26 11:24:54;;;;;;;4.53;1.45;;;32.40;34.80;;;;;;6199386;28;20046;-90
2022/07/26 11:28:03;;;;;;;4.37;1.60;;;32.90;34.10;;;;;;6204789;28;20057;-90
2022/07/26 11:31:04;;;;;;;2.95;1.20;;;33.20;33.50;;;;;;6221972;28;20030;-89
2022/07/26 11:34:07;;;;;;;2.22;1.35;;;33.50;32.80;;;;;;6224715;28;20050;-90
2022/07/26 11:37:12;;;;;;;6.85;1.52;;;33.60;32.60;;;;;;6236725;28;20026;-86
2022/07/26 11:40:49;;;;;;;1.63;1.00;;;33.70;32.40;;;;;;6246102;28;20033;-89
2022/07/26 11:43:59;;;;;;;2.53;1.38;;;33.80;32.40;;;;;;6274656;28;20052;-88
2022/07/26 11:47:23;;;;;;;3.25;1.17;;;33.80;32.40;;;;;;6275666;28;20013;-87
2022/07/26 11:54:56;;;;;;;5.32;1.38;;;33.40;32.60;;;;;;6247479;28;20025;-88
2022/07/26 11:58:10;;;;;;;4.57;1.05;;;33.40;32.40;;;;;;6239628;28;20038;-87
2022/07/26 12:01:45;;;;;;;7.75;1.30;;;33.20;32.40;;;;;;6250749;28;20098;-89
2022/07/26 12:05:16;;;;;;;10.75;1.33;;;33.30;32.60;;;;;;6232356;28;20371;-88
2022/07/26 12:08:18;;;;;;;1.10;1.00;;;33.50;32.00;;;;;;6229090;28;20375;-85
2022/07/26 12:11:20;;;;;;;2.45;1.25;;;33.60;31.10;;;;;;6240669;28;20041;-88
2022/07/26 12:14:38;;;;;;;3.35;1.00;;;33.60;31.00;;;;;;6241114;28;20463;-89
2022/07/26 12:18:03;;;;;;;3.63;0.98;;;33.80;30.90;;;;;;6222243;28;20034;-88
2022/07/26 12:21:50;;;;;;;8.43;1.20;;;33.90;30.70;;;;;;6237252;28;20328;-86
2022/07/26 12:25:07;;;;;;;5.63;1.25;;;33.90;30.50;;;;;;6156978;29;20039;-87
2022/07/26 12:29:23;;;;;;;4.18;1.25;;;33.80;30.70;;;;;;6168378;28;20385;-88
2022/07/26 12:37:18;;;;;;;2.95;0.88;;;33.90;30.30;;;;;;6118713;29;20032;-87
2022/07/26 12:41:18;;;;;;;2.75;1.00;;;33.70;30.60;;;;;;6118241;29;20044;-87
2022/07/26 12:44:57;;;;;;;9.63;1.52;;;34.00;30.30;;;;;;6133168;29;20095;-88
2022/07/26 12:48:21;;;;;;;1.30;1.05;;;34.60;29.50;;;;;;6110582;29;20051;-86
2022/07/26 12:51:23;;;;;;;5.05;1.17;;;34.80;29.10;;;;;;6108510;29;20458;-87
2022/07/26 12:54:30;;;;;;;4.20;1.20;;;35.10;28.70;;;;;;6145648;28;20050;-87
2022/07/26 12:57:32;;;;;;;2.63;1.35;;;35.50;28.50;;;;;;6168539;28;20110;-87
2022/07/26 13:00:33;;;;;;;2.63;1.10;;;36.10;28.00;;;;;;6188207;28;20073;-84
2022/07/26 13:03:34;;;;;;;2.78;1.38;;;36.60;27.30;;;;;;6177679;28;20023;-88
2022/07/26 13:06:35;;;;;;;1.48;0.98;;;37.00;27.00;;;;;;6186363;28;20042;-86
2022/07/26 13:09:37;;;;;;;3.17;0.95;;;37.30;26.60;;;;;;6165954;28;20096;-88
2022/07/26 13:12:39;;;;;;;2.42;1.20;;;37.50;26.30;;;;;;6202120;28;20045;-87
2022/07/26 13:15:59;;;;;;;4.32;1.27;;;37.80;26.10;;;;;;6233665;28;20117;-87
2022/07/26 13:23:43;;;;;;;1.83;1.08;;;38.30;25.40;;;;;;6233849;28;20033;-87
2022/07/26 13:26:47;;;;;;;7.75;1.40;;;38.90;25.00;;;;;;6257395;28;20432;-88
2022/07/26 13:30:01;;;;;;;7.40;1.40;;;38.90;24.70;;;;;;6253544;28;20378;-87
2022/07/26 13:36:36;;;;;;;6.32;1.40;;;39.40;24.20;;;;;;6255427;28;20056;-88
2022/07/26 13:39:55;;;;;;;5.57;1.08;;;39.70;24.00;;;;;;6253813;28;20087;-88
2022/07/26 13:47:47;;;;;;;5.35;1.35;;;40.20;23.50;;;;;;6180444;28;20034;-87
2022/07/26 13:51:10;;;;;;;8.23;1.58;;;40.50;23.20;;;;;;6146604;28;20035;-86
2022/07/26 13:54:19;;;;;;;11.07;1.10;;;40.80;23.10;;;;;;6163195;28;20045;-87
2022/07/26 13:57:27;;;;;;;5.28;1.10;;;40.80;22.80;;;;;;6166576;28;20133;-85
2022/07/26 14:00:34;;;;;;;2.75;1.20;;;41.40;22.60;;;;;;6166346;28;20476;-85
2022/07/26 14:03:39;;;;;;;1.52;1.10;;;41.60;22.20;;;;;;6187994;28;20047;-86
2022/07/26 14:06:41;;;;;;;6.25;1.42;;;41.80;22.00;;;;;;6185365;28;20045;-85
2022/07/26 14:09:42;;;;;;;6.60;1.65;;;42.00;21.80;;;;;;6205301;28;20041;-85
2022/07/26 14:12:43;;;;;;;4.47;1.05;;;42.10;21.50;;;;;;6187954;28;20058;-84
2022/07/26 14:15:44;;;;;;;3.38;1.05;;;42.10;21.50;;;;;;6202986;28;20066;-86
2022/07/26 14:18:45;;;;;;;2.25;1.25;;;42.40;21.30;;;;;;6178144;28;20066;-85
2022/07/26 14:21:47;;;;;;;5.30;1.17;;;42.70;21.00;;;;;;6248885;28;20053;-84
2022/07/26 14:24:48;;;;;;;2.55;1.10;;;42.70;20.90;;;;;;6252725;28;20048;-85
2022/07/26 14:27:50;;;;;;;3.22;1.15;;;42.50;21.10;;;;;;6272066;28;20033;-86
2022/07/26 14:30:52;;;;;;;4.57;1.05;;;42.30;21.10;;;;;;6256436;28;20022;-89
2022/07/26 14:33:52;;;;;;;3.97;1.10;;;42.40;20.90;;;;;;6252717;28;20052;-87
2022/07/26 14:36:53;;;;;;;1.95;1.10;;;42.20;21.00;;;;;;6250129;28;20370;-86
2022/07/26 14:39:54;;;;;;;5.32;1.40;;;42.10;21.10;;;;;;6252613;28;20030;-86
2022/07/26 14:42:56;;;;;;;4.32;1.10;;;42.50;20.90;;;;;;6270107;28;20025;-88
2022/07/26 14:45:57;;;;;;;10.93;1.30;;;42.90;20.70;;;;;;6268604;28;20035;-89
2022/07/26 14:48:58;;;;;;;0.93;0.88;;;43.30;20.30;;;;;;6252505;28;20061;-87
2022/07/26 14:52:00;;;;;;;7.28;1.55;;;43.30;20.10;;;;;;6252092;28;20121;-86
2022/07/26 14:55:00;;;;;;;1.27;1.10;;;43.40;20.10;;;;;;6266587;28;20034;-84
2022/07/26 14:58:01;;;;;;;4.30;1.10;;;42.90;20.30;;;;;;6253997;28;20065;-83
2022/07/26 15:01:03;;;;;;;5.18;1.10;;;42.70;20.50;;;;;;6256610;28;20022;-85
2022/07/26 15:04:04;;;;;;;10.25;1.27;;;42.20;20.80;;;;;;6259478;28;20140;-88
2022/07/26 15:07:05;;;;;;;2.35;1.30;;;41.10;21.70;;;;;;6250651;28;20355;-85
2022/07/26 15:10:08;;;;;;;4.60;1.30;;;39.80;22.80;;;;;;6246177;28;20410;-85
2022/07/26 15:13:28;;;;;;;1.63;1.08;;;38.80;23.70;;;;;;6230107;28;20463;-87
2022/07/26 15:16:56;;;;;;;2.45;1.00;;;37.90;24.60;;;;;;6241505;28;20068;-84
2022/07/26 15:20:12;;;;;;;1.55;0.95;;;37.30;25.10;;;;;;6258131;28;20419;-85
2022/07/26 15:23:18;;;;;;;1.98;1.13;;;36.80;25.60;;;;;;6273540;28;20141;-86
2022/07/26 15:26:25;;;;;;;3.20;1.30;;;36.30;26.20;;;;;;6274075;28;20036;-85
2022/07/26 15:29:32;;;;;;;5.22;1.30;;;36.30;26.30;;;;;;6273484;28;20048;-85
2022/07/26 15:32:34;;;;;;;5.22;1.27;;;37.30;25.40;;;;;;6273858;28;20033;-84
2022/07/26 15:35:35;;;;;;;3.17;1.00;;;38.40;24.50;;;;;;6277571;28;20030;-82
2022/07/26 15:38:36;;;;;;;1.98;1.20;;;39.20;23.60;;;;;;6273619;28;20075;-83
2022/07/26 15:41:37;;;;;;;1.98;1.15;;;40.00;22.90;;;;;;6236825;28;20037;-83
2022/07/26 15:44:38;;;;;;;7.63;1.20;;;40.70;22.30;;;;;;6253077;28;20459;-83
2022/07/26 15:47:40;;;;;;;7.07;1.38;;;40.90;22.00;;;;;;6269770;28;20095;-85
2022/07/26 15:50:42;;;;;;;4.05;1.30;;;40.40;22.30;;;;;;6269599;28;20447;-85
2022/07/26 15:53:43;;;;;;;1.60;1.00;;;40.30;22.50;;;;;;6257762;28;20048;-85
2022/07/26 15:56:44;;;;;;;5.00;1.80;;;40.70;22.20;;;;;;6258278;28;20038;-83
2022/07/26 15:59:45;;;;;;;2.00;1.17;;;41.00;21.90;;;;;;6266483;28;20040;-83
2022/07/26 16:02:46;;;;;;;1.95;1.30;;;41.00;21.60;;;;;;6255566;28;20041;-83
2022/07/26 16:05:47;;;;;;;1.95;0.90;;;40.90;21.50;;;;;;6252240;28;20025;-83
2022/07/26 16:08:47;;;;;;;1.73;0.85;;;40.70;21.90;;;;;;6236899;28;20051;-83
2022/07/26 16:11:48;;;;;;;3.47;0.98;;;40.90;21.70;;;;;;6256809;28;20091;-84
2022/07/26 16:14:49;;;;;;;2.53;1.20;;;40.90;21.90;;;;;;6253396;28;20026;-86
2022/07/26 16:17:50;;;;;;;1.83;1.25;;;40.90;21.60;;;;;;6252413;28;20045;-85
2022/07/26 16:20:51;;;;;;;1.35;1.10;;;40.90;21.70;;;;;;6253121;28;20144;-85
2022/07/26 16:23:52;;;;;;;2.85;1.23;;;41.00;21.50;;;;;;6251518;28;20382;-84
2022/07/26 16:26:53;;;;;;;1.30;1.20;;;40.80;21.40;;;;;;6250978;28;20033;-86
2022/07/26 16:29:54;;;;;;;1.35;1.13;;;40.40;21.70;;;;;;6251139;28;20478;-85
2022/07/26 16:32:55;;;;;;;3.58;0.95;;;40.30;21.90;;;;;;6256677;28;20013;-84
2022/07/26 16:35:56;;;;;;;2.17;1.05;;;40.30;21.80;;;;;;6254110;28;20140;-84
2022/07/26 16:38:57;;;;;;;6.05;1.20;;;40.30;21.70;;;;;;6253932;28;20029;-85
2022/07/26 16:41:58;;;;;;;4.32;0.90;;;40.30;21.70;;;;;;6254093;28;20511;-85
2022/07/26 16:44:59;;;;;;;9.63;1.20;;;39.70;22.10;;;;;;6252747;28;20037;-84
2022/07/26 16:48:01;;;;;;;5.40;1.10;;;38.80;22.90;;;;;;6259647;28;20061;-85
2022/07/26 16:51:02;;;;;;;3.33;1.13;;;37.90;23.60;;;;;;6257529;28;20037;-85
2022/07/26 16:54:04;;;;;;;2.47;1.30;;;37.50;24.00;;;;;;6241382;28;20453;-85
2022/07/26 16:57:12;;;;;;;2.53;1.17;;;37.30;24.20;;;;;;6241247;28;20037;-84
2022/07/26 17:00:17;;;;;;;7.65;1.13;;;36.60;24.50;;;;;;6255746;28;20026;-83
2022/07/26 17:03:20;;;;;;;4.25;0.95;;;36.10;25.30;;;;;;6239280;28;20147;-81
2022/07/26 17:06:22;;;;;;;4.28;1.02;;;35.40;25.90;;;;;;6254611;28;20034;-81
2022/07/26 17:09:23;;;;;;;4.55;1.00;;;34.80;26.50;;;;;;6256508;28;20033;-82
2022/07/26 17:12:24;;;;;;;1.85;0.90;;;34.30;26.90;;;;;;6258376;28;20030;-81
2022/07/26 17:15:25;;;;;;;4.40;1.20;;;33.90;27.30;;;;;;6258848;28;20036;-83
2022/07/26 17:18:27;;;;;;;3.17;0.90;;;33.50;27.70;;;;;;6256481;28;20045;-81
2022/07/26 17:21:28;;;;;;;2.92;0.80;;;33.30;27.90;;;;;;6247843;28;20058;-81
2022/07/26 17:24:29;;;;;;;4.68;1.50;;;33.20;28.10;;;;;;6266151;28;20044;-81
2022/07/26 17:27:30;;;;;;;2.97;1.02;;;33.10;28.20;;;;;;6238460;28;20026;-80
2022/07/26 17:30:31;;;;;;;2.47;0.88;;;33.00;28.20;;;;;;6253453;28;20104;-79
2022/07/26 17:33:32;;;;;;;4.93;1.10;;;32.90;28.40;;;;;;6245652;28;20026;-82
2022/07/26 17:36:34;;;;;;;2.40;1.35;;;32.70;28.40;;;;;;6232462;28;20037;-82
2022/07/26 17:39:37;;;;;;;5.00;1.48;;;32.60;28.50;;;;;;6240254;28;20493;-83
2022/07/26 17:42:38;;;;;;;0.85;0.77;;;32.50;28.60;;;;;;6256274;28;20108;-82
2022/07/26 17:45:39;;;;;;;2.70;0.90;;;32.40;28.50;;;;;;6254900;28;20534;-83
2022/07/26 17:48:42;;;;;;;3.33;0.77;;;32.40;29.00;;;;;;6250940;28;20390;-83
2022/07/26 17:51:44;;;;;;;6.43;0.90;;;32.30;28.40;;;;;;6231508;28;20029;-82
2022/07/26 17:54:45;;;;;;;1.67;0.88;;;32.30;28.40;;;;;;6247950;28;20033;-81
2022/07/26 17:57:47;;;;;;;3.65;1.13;;;32.30;28.30;;;;;;6244083;28;20100;-81
2022/07/26 18:00:50;;;;;;;1.80;0.73;;;32.30;28.30;;;;;;6248162;28;20037;-81
2022/07/26 18:03:51;;;;;;;4.20;0.95;;;32.10;28.10;;;;;;6247156;28;20033;-81
2022/07/26 18:06:52;;;;;;;4.00;0.95;;;32.10;28.20;;;;;;6252246;28;20041;-82
2022/07/26 18:09:53;;;;;;;2.13;1.00;;;32.00;28.10;;;;;;6250605;28;20029;-81
2022/07/26 18:12:54;;;;;;;1.23;0.98;;;32.00;28.10;;;;;;6243114;28;20472;-82
2022/07/26 18:15:56;;;;;;;4.55;0.90;;;31.90;28.10;;;;;;6248380;28;20079;-81
2022/07/26 18:18:57;;;;;;;1.85;1.13;;;31.90;28.20;;;;;;6229571;28;20033;-79